KAPC/APC METAR and TAF weather

Enter ICAO airport designator
Station Type Date Time Source
KAPC METAR 2021/07/30 05:54 UTC NOAA

KAPC 300554Z AUTO 20007KT 10SM CLR 17/14 A2989 RMK AO2 SLP113 T01670144 10256 20167 51007


Station Type Date Time Source
KAPC Decoded METAR 2021/07/30 05:54 UTC NOAA

NAPA COUNTY AIRPORT, CA, United States (KAPC) 38-12N 122-17W 13M
Jul 30, 2021 - 01:54 AM EDT / 2021.07.30 0554 UTC
Wind: from the SSW (200 degrees) at 8 MPH (7 KT):0
Visibility: 10 mile(s):0
Sky conditions: clear
Temperature: 62.1 F (16.7 C)
Dew Point: 57.9 F (14.4 C)
Relative Humidity: 86%
Pressure (altimeter): 29.89 in. Hg (1012 hPa)
Pressure tendency: 0.02 inches (0.7 hPa) higher than three hours ago
ob: KAPC 300554Z AUTO 20007KT 10SM CLR 17/14 A2989 RMK AO2 SLP113 T01670144 10256 20167 51007
cycle: 6

Station Type Date Time Source
KAPC TAF 2021/07/30 06:24 UTC NOAA

TAF KAPC 300521Z 3006/3106 20012KT P6SM FEW180
FM300700 22007KT P6SM FEW150
FM301000 VRB05KT P6SM SCT008
TEMPO 3014/3016 OVC007
FM301600 VRB03KT P6SM FEW008 FEW150
FM302100 20015KT P6SM FEW150
FM310500 16011KT P6SM FEW007 FEW150

Example: see airport list